sensor_id;sensor_type;location;lat;lon;timestamp;pressure;altitude;pressure_sealevel;temperature;humidity
45941;BME280;31858;46.008;8.978;2023-01-27T00:07:07;93912.97;;;1.52;100.00
45941;BME280;31858;46.008;8.978;2023-01-27T00:17:10;93907.81;;;1.55;100.00
45941;BME280;31858;46.008;8.978;2023-01-27T00:27:12;93907.38;;;1.53;100.00
45941;BME280;31858;46.008;8.978;2023-01-27T00:37:15;93902.03;;;1.38;100.00
45941;BME280;31858;46.008;8.978;2023-01-27T00:47:17;93893.50;;;1.41;100.00
45941;BME280;31858;46.008;8.978;2023-01-27T00:57:19;93893.38;;;1.49;100.00
45941;BME280;31858;46.008;8.978;2023-01-27T01:07:21;93880.47;;;1.56;100.00
45941;BME280;31858;46.008;8.978;2023-01-27T01:17:24;93890.31;;;1.59;100.00
45941;BME280;31858;46.008;8.978;2023-01-27T01:27:26;93874.34;;;1.64;100.00
45941;BME280;31858;46.008;8.978;2023-01-27T01:37:30;93871.81;;;1.68;100.00
45941;BME280;31858;46.008;8.978;2023-01-27T01:47:31;93860.97;;;1.70;100.00
45941;BME280;31858;46.008;8.978;2023-01-27T01:57:34;93861.97;;;1.53;100.00
45941;BME280;31858;46.008;8.978;2023-01-27T02:07:39;93862.53;;;1.46;100.00
45941;BME280;31858;46.008;8.978;2023-01-27T02:17:45;93864.41;;;1.34;100.00
45941;BME280;31858;46.008;8.978;2023-01-27T02:27:48;93856.56;;;1.21;100.00
45941;BME280;31858;46.008;8.978;2023-01-27T02:37:50;93858.53;;;1.24;100.00
45941;BME280;31858;46.008;8.978;2023-01-27T02:47:53;93854.38;;;1.23;100.00
45941;BME280;31858;46.008;8.978;2023-01-27T02:57:55;93851.31;;;1.09;100.00
45941;BME280;31858;46.008;8.978;2023-01-27T03:07:58;93842.97;;;0.95;100.00
45941;BME280;31858;46.008;8.978;2023-01-27T03:18:03;93847.44;;;0.82;100.00
45941;BME280;31858;46.008;8.978;2023-01-27T03:28:14;93846.03;;;0.85;100.00
45941;BME280;31858;46.008;8.978;2023-01-27T03:38:15;93842.97;;;0.83;100.00
45941;BME280;31858;46.008;8.978;2023-01-27T03:48:36;93845.03;;;0.77;100.00
45941;BME280;31858;46.008;8.978;2023-01-27T03:58:38;93858.69;;;0.83;100.00
45941;BME280;31858;46.008;8.978;2023-01-27T04:08:42;93856.97;;;0.87;100.00
45941;BME280;31858;46.008;8.978;2023-01-27T04:18:44;93843.28;;;0.69;100.00
45941;BME280;31858;46.008;8.978;2023-01-27T04:28:48;93854.41;;;0.66;100.00
45941;BME280;31858;46.008;8.978;2023-01-27T04:38:49;93862.94;;;0.75;100.00
45941;BME280;31858;46.008;8.978;2023-01-27T04:48:52;93855.25;;;0.58;100.00
45941;BME280;31858;46.008;8.978;2023-01-27T04:58:57;93862.81;;;0.59;100.00
45941;BME280;31858;46.008;8.978;2023-01-27T05:09:00;93861.31;;;0.71;100.00
45941;BME280;31858;46.008;8.978;2023-01-27T05:19:02;93863.56;;;0.60;100.00
45941;BME280;31858;46.008;8.978;2023-01-27T05:29:05;93874.16;;;0.51;100.00
45941;BME280;31858;46.008;8.978;2023-01-27T05:39:09;93873.25;;;0.47;100.00
45941;BME280;31858;46.008;8.978;2023-01-27T05:49:12;93883.75;;;0.47;100.00
45941;BME280;31858;46.008;8.978;2023-01-27T05:59:14;93892.69;;;0.46;100.00
45941;BME280;31858;46.008;8.978;2023-01-27T06:09:17;93900.50;;;0.34;100.00
45941;BME280;31858;46.008;8.978;2023-01-27T06:19:18;93903.44;;;0.32;100.00
45941;BME280;31858;46.008;8.978;2023-01-27T06:29:21;93906.91;;;0.24;100.00
45941;BME280;31858;46.008;8.978;2023-01-27T06:39:23;93918.41;;;0.32;100.00
45941;BME280;31858;46.008;8.978;2023-01-27T06:49:26;93928.63;;;0.25;100.00
45941;BME280;31858;46.008;8.978;2023-01-27T06:59:27;93944.34;;;0.25;100.00
45941;BME280;31858;46.008;8.978;2023-01-27T07:09:30;93948.50;;;0.26;100.00
45941;BME280;31858;46.008;8.978;2023-01-27T07:19:32;93967.31;;;0.28;100.00
45941;BME280;31858;46.008;8.978;2023-01-27T07:29:35;93980.91;;;0.21;100.00
45941;BME280;31858;46.008;8.978;2023-01-27T07:39:37;93981.09;;;0.16;100.00
45941;BME280;31858;46.008;8.978;2023-01-27T07:49:40;93984.22;;;0.10;100.00
45941;BME280;31858;46.008;8.978;2023-01-27T07:59:41;93990.41;;;0.05;100.00
45941;BME280;31858;46.008;8.978;2023-01-27T08:09:44;93991.75;;;0.11;100.00
45941;BME280;31858;46.008;8.978;2023-01-27T08:19:46;94007.53;;;0.03;100.00
45941;BME280;31858;46.008;8.978;2023-01-27T08:29:52;94017.69;;;0.04;100.00
45941;BME280;31858;46.008;8.978;2023-01-27T08:39:53;94020.59;;;0.11;100.00
45941;BME280;31858;46.008;8.978;2023-01-27T08:49:56;94036.34;;;0.03;100.00
45941;BME280;31858;46.008;8.978;2023-01-27T08:59:58;94038.50;;;0.00;100.00
45941;BME280;31858;46.008;8.978;2023-01-27T09:10:01;94047.53;;;0.12;100.00
45941;BME280;31858;46.008;8.978;2023-01-27T09:20:04;94047.38;;;0.17;100.00
45941;BME280;31858;46.008;8.978;2023-01-27T09:30:08;94048.16;;;0.38;100.00
45941;BME280;31858;46.008;8.978;2023-01-27T09:40:23;94045.78;;;0.24;100.00
45941;BME280;31858;46.008;8.978;2023-01-27T09:50:42;94052.81;;;0.32;100.00
45941;BME280;31858;46.008;8.978;2023-01-27T10:00:52;94058.56;;;0.26;100.00
45941;BME280;31858;46.008;8.978;2023-01-27T10:11:10;94047.63;;;0.24;100.00
45941;BME280;31858;46.008;8.978;2023-01-27T10:21:18;94037.00;;;0.20;100.00
45941;BME280;31858;46.008;8.978;2023-01-27T10:31:26;94032.59;;;0.12;100.00
45941;BME280;31858;46.008;8.978;2023-01-27T10:41:34;94033.03;;;0.14;100.00
45941;BME280;31858;46.008;8.978;2023-01-27T10:51:41;94023.97;;;0.12;100.00
45941;BME280;31858;46.008;8.978;2023-01-27T11:01:50;94022.69;;;0.18;100.00
45941;BME280;31858;46.008;8.978;2023-01-27T11:11:57;94016.38;;;0.19;100.00
45941;BME280;31858;46.008;8.978;2023-01-27T11:22:02;94011.13;;;0.19;100.00
45941;BME280;31858;46.008;8.978;2023-01-27T11:32:12;94012.84;;;0.15;100.00
45941;BME280;31858;46.008;8.978;2023-01-27T11:42:16;93998.72;;;0.07;100.00
45941;BME280;31858;46.008;8.978;2023-01-27T11:52:21;93995.53;;;0.22;100.00
45941;BME280;31858;46.008;8.978;2023-01-27T12:02:32;93983.66;;;0.25;100.00
45941;BME280;31858;46.008;8.978;2023-01-27T12:12:37;93978.69;;;0.32;100.00
45941;BME280;31858;46.008;8.978;2023-01-27T12:22:44;93968.19;;;0.32;100.00
45941;BME280;31858;46.008;8.978;2023-01-27T12:32:49;93967.88;;;0.33;100.00
45941;BME280;31858;46.008;8.978;2023-01-27T12:43:05;93967.44;;;0.31;100.00
45941;BME280;31858;46.008;8.978;2023-01-27T12:53:13;93956.00;;;0.36;100.00
45941;BME280;31858;46.008;8.978;2023-01-27T13:03:15;93961.88;;;0.33;100.00
45941;BME280;31858;46.008;8.978;2023-01-27T13:13:23;93964.94;;;0.35;100.00
45941;BME280;31858;46.008;8.978;2023-01-27T13:23:28;93966.72;;;0.43;100.00
45941;BME280;31858;46.008;8.978;2023-01-27T13:33:38;93968.44;;;0.39;100.00
45941;BME280;31858;46.008;8.978;2023-01-27T13:43:50;93966.22;;;0.29;100.00
45941;BME280;31858;46.008;8.978;2023-01-27T13:53:57;93965.31;;;0.25;100.00
45941;BME280;31858;46.008;8.978;2023-01-27T14:04:33;93962.88;;;0.20;100.00
45941;BME280;31858;46.008;8.978;2023-01-27T14:14:49;93949.16;;;0.23;100.00
45941;BME280;31858;46.008;8.978;2023-01-27T14:25:01;93962.69;;;0.25;100.00
45941;BME280;31858;46.008;8.978;2023-01-27T14:35:17;93959.44;;;0.28;100.00
45941;BME280;31858;46.008;8.978;2023-01-27T14:45:26;93955.91;;;0.24;100.00
45941;BME280;31858;46.008;8.978;2023-01-27T14:55:39;93952.66;;;0.27;100.00
45941;BME280;31858;46.008;8.978;2023-01-27T15:05:48;93946.66;;;0.26;100.00
45941;BME280;31858;46.008;8.978;2023-01-27T15:16:14;93954.66;;;0.30;100.00
45941;BME280;31858;46.008;8.978;2023-01-27T15:26:22;93961.47;;;0.22;100.00
45941;BME280;31858;46.008;8.978;2023-01-27T15:36:32;93954.84;;;0.25;100.00
45941;BME280;31858;46.008;8.978;2023-01-27T15:46:35;93956.13;;;0.19;100.00
45941;BME280;31858;46.008;8.978;2023-01-27T15:56:44;93955.34;;;0.18;100.00
45941;BME280;31858;46.008;8.978;2023-01-27T16:06:48;93969.34;;;0.22;100.00
45941;BME280;31858;46.008;8.978;2023-01-27T16:17:07;93964.03;;;0.31;100.00
45941;BME280;31858;46.008;8.978;2023-01-27T16:27:21;93978.47;;;0.37;100.00
45941;BME280;31858;46.008;8.978;2023-01-27T16:37:29;93992.69;;;0.36;100.00
45941;BME280;31858;46.008;8.978;2023-01-27T16:47:39;93987.44;;;0.36;100.00
45941;BME280;31858;46.008;8.978;2023-01-27T16:57:44;93996.13;;;0.28;100.00
45941;BME280;31858;46.008;8.978;2023-01-27T17:08:01;94008.06;;;0.17;100.00
45941;BME280;31858;46.008;8.978;2023-01-27T17:18:07;94004.69;;;0.16;100.00
45941;BME280;31858;46.008;8.978;2023-01-27T17:28:11;94023.16;;;0.20;100.00
45941;BME280;31858;46.008;8.978;2023-01-27T17:38:16;94030.59;;;0.09;100.00
45941;BME280;31858;46.008;8.978;2023-01-27T17:48:19;94044.66;;;0.05;100.00
45941;BME280;31858;46.008;8.978;2023-01-27T17:58:25;94064.22;;;0.07;100.00
45941;BME280;31858;46.008;8.978;2023-01-27T18:08:32;94065.47;;;0.01;100.00
45941;BME280;31858;46.008;8.978;2023-01-27T18:18:35;94081.06;;;-0.03;100.00
45941;BME280;31858;46.008;8.978;2023-01-27T18:28:37;94089.09;;;-0.08;100.00
45941;BME280;31858;46.008;8.978;2023-01-27T18:38:45;94095.72;;;-0.02;100.00
45941;BME280;31858;46.008;8.978;2023-01-27T18:48:47;94096.25;;;0.13;100.00
45941;BME280;31858;46.008;8.978;2023-01-27T18:58:50;94104.22;;;0.16;100.00
45941;BME280;31858;46.008;8.978;2023-01-27T19:08:53;94118.56;;;0.19;100.00
45941;BME280;31858;46.008;8.978;2023-01-27T19:18:56;94111.00;;;0.17;100.00
45941;BME280;31858;46.008;8.978;2023-01-27T19:28:57;94120.72;;;0.17;100.00
45941;BME280;31858;46.008;8.978;2023-01-27T19:39:10;94126.88;;;0.21;100.00
45941;BME280;31858;46.008;8.978;2023-01-27T19:49:14;94135.03;;;0.19;100.00
45941;BME280;31858;46.008;8.978;2023-01-27T19:59:17;94141.25;;;0.06;100.00
45941;BME280;31858;46.008;8.978;2023-01-27T20:09:19;94154.22;;;0.03;100.00
45941;BME280;31858;46.008;8.978;2023-01-27T20:19:22;94168.00;;;-0.18;100.00
45941;BME280;31858;46.008;8.978;2023-01-27T20:29:24;94186.78;;;-0.16;100.00
45941;BME280;31858;46.008;8.978;2023-01-27T20:39:26;94200.97;;;-0.17;100.00
45941;BME280;31858;46.008;8.978;2023-01-27T20:49:28;94206.38;;;-0.22;100.00
45941;BME280;31858;46.008;8.978;2023-01-27T20:59:31;94209.13;;;-0.18;100.00
45941;BME280;31858;46.008;8.978;2023-01-27T21:09:33;94214.97;;;-0.13;100.00
45941;BME280;31858;46.008;8.978;2023-01-27T21:19:36;94210.19;;;-0.11;100.00
45941;BME280;31858;46.008;8.978;2023-01-27T21:29:38;94210.34;;;-0.07;100.00
45941;BME280;31858;46.008;8.978;2023-01-27T21:39:42;94213.69;;;0.02;100.00
45941;BME280;31858;46.008;8.978;2023-01-27T21:49:45;94219.06;;;0.06;100.00
45941;BME280;31858;46.008;8.978;2023-01-27T22:00:06;94222.28;;;0.11;100.00
45941;BME280;31858;46.008;8.978;2023-01-27T22:10:12;94226.63;;;0.07;100.00
45941;BME280;31858;46.008;8.978;2023-01-27T22:20:16;94222.28;;;0.11;100.00
45941;BME280;31858;46.008;8.978;2023-01-27T22:30:19;94224.03;;;0.45;100.00
45941;BME280;31858;46.008;8.978;2023-01-27T22:40:22;94230.53;;;0.39;100.00
45941;BME280;31858;46.008;8.978;2023-01-27T22:50:23;94238.16;;;0.15;100.00
45941;BME280;31858;46.008;8.978;2023-01-27T23:00:26;94231.31;;;-0.07;100.00
45941;BME280;31858;46.008;8.978;2023-01-27T23:10:28;94241.16;;;-0.04;100.00
45941;BME280;31858;46.008;8.978;2023-01-27T23:20:31;94237.63;;;-0.25;100.00
45941;BME280;31858;46.008;8.978;2023-01-27T23:30:32;94231.66;;;-0.43;100.00
45941;BME280;31858;46.008;8.978;2023-01-27T23:40:37;94255.97;;;-0.60;100.00
45941;BME280;31858;46.008;8.978;2023-01-27T23:50:40;94253.19;;;-0.63;100.00
